createdAt,value
2022-10-18T00:01:12.270Z,101869.20
2022-10-18T00:03:43.950Z,101864.60
2022-10-18T00:06:12.705Z,101863.80
2022-10-18T00:08:41.187Z,101867.20
2022-10-18T00:11:09.668Z,101873.00
2022-10-18T00:13:38.357Z,101876.80
2022-10-18T00:16:13.521Z,101875.80
2022-10-18T00:18:43.364Z,101876.20
2022-10-18T00:21:20.405Z,101880.00
2022-10-18T00:23:51.383Z,101874.60
2022-10-18T00:26:26.842Z,101874.40
2022-10-18T00:29:03.761Z,101878.80
2022-10-18T00:31:36.420Z,101880.80
2022-10-18T00:34:15.705Z,101882.20
2022-10-18T00:36:45.569Z,101886.00
2022-10-18T00:39:21.250Z,101884.20
2022-10-18T00:41:51.436Z,101883.40
2022-10-18T00:44:26.496Z,101886.40
2022-10-18T00:47:09.211Z,101895.00
2022-10-18T00:49:57.560Z,101887.60
2022-10-18T00:52:58.692Z,101891.00
2022-10-18T00:55:28.910Z,101879.40
2022-10-18T00:57:58.241Z,101889.80
2022-10-18T01:00:26.918Z,101882.60
2022-10-18T01:02:57.418Z,101885.20
2022-10-18T01:05:26.754Z,101883.20
2022-10-18T01:08:12.131Z,101883.60
2022-10-18T01:11:15.574Z,101890.00
2022-10-18T01:13:55.195Z,101886.00
2022-10-18T01:16:47.316Z,101882.60
2022-10-18T01:19:47.154Z,101884.00
2022-10-18T01:22:38.341Z,101887.80
2022-10-18T01:25:51.572Z,101888.80
2022-10-18T01:28:43.481Z,101884.60
2022-10-18T01:31:47.531Z,101878.00
2022-10-18T01:34:19.100Z,101883.20
2022-10-18T01:36:53.742Z,101883.60
2022-10-18T01:39:30.170Z,101879.80
2022-10-18T01:42:02.562Z,101880.40
2022-10-18T01:44:34.375Z,101881.80
2022-10-18T01:47:05.554Z,101886.80
2022-10-18T01:49:34.750Z,101891.20
2022-10-18T01:52:03.528Z,101890.00
2022-10-18T01:54:38.021Z,101896.20
2022-10-18T01:57:45.633Z,101895.60
2022-10-18T02:00:19.403Z,101892.20
2022-10-18T02:03:04.639Z,101890.80
2022-10-18T02:05:47.150Z,101897.60
2022-10-18T02:08:43.183Z,101892.40
2022-10-18T02:11:15.898Z,101903.80
2022-10-18T02:14:03.699Z,101906.80
2022-10-18T02:16:58.405Z,101907.60
2022-10-18T02:19:53.967Z,101908.00
2022-10-18T02:22:34.652Z,101906.80
2022-10-18T02:25:11.353Z,101911.60
2022-10-18T02:27:40.449Z,101914.20
2022-10-18T02:30:10.111Z,101912.40
2022-10-18T02:32:50.660Z,101906.40
2022-10-18T02:35:31.572Z,101913.20
2022-10-18T02:38:00.592Z,101917.60
2022-10-18T02:40:30.318Z,101914.60
2022-10-18T02:42:59.661Z,101912.40
2022-10-18T02:45:28.423Z,101911.80
2022-10-18T02:47:56.777Z,101913.00
2022-10-18T02:50:25.253Z,101910.60
2022-10-18T02:52:53.634Z,101907.60
2022-10-18T02:55:22.044Z,101907.60
2022-10-18T02:57:50.494Z,101902.80
2022-10-18T03:00:19.186Z,101908.40
2022-10-18T03:02:49.405Z,101908.20
2022-10-18T03:05:17.783Z,101911.00
2022-10-18T03:07:46.165Z,101903.40
2022-10-18T03:10:14.644Z,101908.00
2022-10-18T03:12:43.026Z,101910.60
2022-10-18T03:15:11.406Z,101911.20
2022-10-18T03:17:39.991Z,101915.20
2022-10-18T03:20:09.515Z,101913.20
2022-10-18T03:22:37.876Z,101921.00
2022-10-18T03:25:07.076Z,101922.60
2022-10-18T03:27:35.453Z,101915.20
2022-10-18T03:30:06.021Z,101909.00
2022-10-18T03:32:34.933Z,101909.80
2022-10-18T03:35:03.989Z,101914.60
2022-10-18T03:37:32.857Z,101916.00
2022-10-18T03:40:01.347Z,101919.20
2022-10-18T03:42:30.098Z,101920.60
2022-10-18T03:44:58.923Z,101927.20
2022-10-18T03:47:27.404Z,101930.40
2022-10-18T03:49:57.233Z,101928.80
2022-10-18T03:52:26.012Z,101931.40
2022-10-18T03:54:54.492Z,101933.00
2022-10-18T03:57:22.972Z,101929.60
2022-10-18T03:59:51.762Z,101935.40
2022-10-18T04:02:20.347Z,101935.20
2022-10-18T04:04:48.829Z,101936.20
2022-10-18T04:07:17.308Z,101935.40
2022-10-18T04:09:45.790Z,101933.40
2022-10-18T04:12:14.580Z,101937.80
2022-10-18T04:14:42.959Z,101938.40
2022-10-18T04:17:11.338Z,101937.60
2022-10-18T04:19:41.175Z,101931.40
2022-10-18T04:22:12.345Z,101933.80
2022-10-18T04:24:40.983Z,101931.00
2022-10-18T04:27:09.773Z,101930.00
2022-10-18T04:29:38.151Z,101931.40
2022-10-18T04:32:06.943Z,101930.40
2022-10-18T04:34:35.460Z,101931.20
2022-10-18T04:37:03.908Z,101930.80
2022-10-18T04:39:32.797Z,101928.00
2022-10-18T04:42:01.284Z,101928.80
2022-10-18T04:44:29.659Z,101924.80
2022-10-18T04:46:58.038Z,101931.20
2022-10-18T04:49:26.419Z,101934.40
2022-10-18T04:51:54.902Z,101932.40
2022-10-18T04:54:25.194Z,101936.40
2022-10-18T04:56:56.574Z,101935.80
2022-10-18T04:59:25.056Z,101926.40
2022-10-18T05:01:53.564Z,101925.60
2022-10-18T05:04:22.224Z,101929.60
2022-10-18T05:06:50.707Z,101929.00
2022-10-18T05:09:19.291Z,101929.00
2022-10-18T05:11:47.674Z,101929.80
2022-10-18T05:14:16.361Z,101931.60
2022-10-18T05:16:44.738Z,101936.00
2022-10-18T05:19:13.219Z,101934.60
2022-10-18T05:21:41.598Z,101934.00
2022-10-18T05:24:12.538Z,101928.00
2022-10-18T05:26:41.024Z,101928.40
2022-10-18T05:29:09.866Z,101928.80
2022-10-18T05:31:38.497Z,101930.00
2022-10-18T05:34:06.876Z,101932.20
2022-10-18T05:36:35.358Z,101929.60
2022-10-18T05:39:05.683Z,101927.60
2022-10-18T05:41:34.165Z,101926.20
2022-10-18T05:44:06.951Z,101922.60
2022-10-18T05:46:35.635Z,101923.20
2022-10-18T05:49:04.015Z,101913.40
2022-10-18T05:51:32.496Z,101918.40
2022-10-18T05:54:01.081Z,101916.60
2022-10-18T05:56:29.593Z,101921.20
2022-10-18T05:58:58.044Z,101916.60
2022-10-18T06:01:26.425Z,101913.80
2022-10-18T06:03:55.112Z,101912.00
2022-10-18T06:06:23.798Z,101910.20
2022-10-18T06:08:52.187Z,101913.20
2022-10-18T06:11:22.503Z,101915.20
2022-10-18T06:13:52.529Z,101914.80
2022-10-18T06:16:23.037Z,101911.80
2022-10-18T06:18:55.082Z,101911.40
2022-10-18T06:21:25.450Z,101914.20
2022-10-18T06:23:57.424Z,101925.20
2022-10-18T06:26:28.274Z,101929.40
2022-10-18T06:28:57.413Z,101926.20
2022-10-18T06:31:26.445Z,101926.60
2022-10-18T06:33:58.527Z,101921.80
2022-10-18T06:36:27.495Z,101919.00
2022-10-18T06:38:57.105Z,101925.20
2022-10-18T06:41:27.026Z,101927.60
2022-10-18T06:43:57.857Z,101929.80
2022-10-18T06:46:26.976Z,101930.20
2022-10-18T06:48:55.435Z,101931.00
2022-10-18T06:51:23.920Z,101929.40
2022-10-18T06:53:59.724Z,101925.40
2022-10-18T06:56:40.952Z,101929.40
2022-10-18T06:59:09.441Z,101929.80
2022-10-18T07:01:38.094Z,101935.00
2022-10-18T07:04:06.705Z,101933.20
2022-10-18T07:06:35.085Z,101942.40
2022-10-18T07:09:04.286Z,101950.60
2022-10-18T07:11:32.664Z,101954.60
2022-10-18T07:14:04.350Z,101958.60
2022-10-18T07:16:34.787Z,101954.00
2022-10-18T07:19:03.434Z,101961.80
2022-10-18T07:21:32.123Z,101966.40
2022-10-18T07:24:00.617Z,101966.60
2022-10-18T07:26:33.285Z,101960.20
2022-10-18T07:29:12.545Z,101955.60
2022-10-18T07:31:41.205Z,101950.80
2022-10-18T07:34:13.144Z,101950.80
2022-10-18T07:36:42.571Z,101959.20
2022-10-18T07:39:11.262Z,101953.60
2022-10-18T07:41:40.152Z,101948.40
2022-10-18T07:44:09.273Z,101946.20
2022-10-18T07:46:38.035Z,101939.60
2022-10-18T07:49:06.518Z,101935.80
2022-10-18T07:51:36.362Z,101936.40
2022-10-18T07:54:04.919Z,101937.60
2022-10-18T07:56:33.504Z,101939.80
2022-10-18T07:59:01.986Z,101936.20
2022-10-18T08:01:30.513Z,101938.80
2022-10-18T08:04:06.186Z,101942.20
2022-10-18T08:06:35.931Z,101944.80
2022-10-18T08:09:04.718Z,101938.60
2022-10-18T08:11:33.404Z,101946.60
2022-10-18T08:14:01.885Z,101944.40
2022-10-18T08:19:01.618Z,101941.40
2022-10-18T08:21:30.107Z,101941.40
2022-10-18T08:23:58.581Z,101935.80
2022-10-18T08:26:27.066Z,101931.40
2022-10-18T08:29:10.160Z,101935.60
2022-10-18T08:31:39.095Z,101937.20
2022-10-18T08:34:07.665Z,101929.00
2022-10-18T08:36:36.145Z,101924.40
2022-10-18T08:39:04.637Z,101923.80
2022-10-18T08:41:48.058Z,101926.00
2022-10-18T08:44:27.657Z,101923.40
2022-10-18T08:47:12.057Z,101927.60
2022-10-18T08:49:50.989Z,101929.60
2022-10-18T08:52:57.866Z,101920.80
2022-10-18T08:55:45.803Z,101916.80
2022-10-18T08:58:31.849Z,101928.40
2022-10-18T09:01:28.130Z,101924.80
2022-10-18T09:04:14.648Z,101923.00
2022-10-18T09:07:32.987Z,101920.40
2022-10-18T09:10:27.589Z,101916.00
2022-10-18T09:13:10.911Z,101921.20
2022-10-18T09:16:12.879Z,101918.60
2022-10-18T09:19:28.363Z,101923.20
2022-10-18T09:22:26.242Z,101925.20
2022-10-18T09:25:11.919Z,101921.00
2022-10-18T09:28:07.553Z,101922.60
2022-10-18T09:31:08.073Z,101916.80
2022-10-18T09:33:58.469Z,101915.20
2022-10-18T09:36:35.857Z,101909.80
2022-10-18T09:39:09.579Z,101902.00
2022-10-18T09:42:18.187Z,101899.20
2022-10-18T09:44:56.044Z,101901.80
2022-10-18T09:47:38.602Z,101908.20
2022-10-18T09:50:28.162Z,101914.60
2022-10-18T09:53:03.218Z,101894.80
2022-10-18T09:55:38.763Z,101884.60
2022-10-18T09:58:10.875Z,101885.40
2022-10-18T10:00:48.887Z,101897.40
2022-10-18T10:03:17.520Z,101892.20
2022-10-18T10:05:46.819Z,101891.40
2022-10-18T10:08:15.301Z,101898.40
2022-10-18T10:10:48.320Z,101909.40
2022-10-18T10:13:28.035Z,101918.00
2022-10-18T10:16:01.384Z,101926.20
2022-10-18T10:18:40.456Z,101926.60
2022-10-18T10:21:15.965Z,101920.20
2022-10-18T10:23:59.923Z,101913.40
2022-10-18T10:26:34.535Z,101906.80
2022-10-18T10:29:03.014Z,101899.00
2022-10-18T10:31:33.495Z,101895.80
2022-10-18T10:34:14.265Z,101897.60
2022-10-18T10:36:54.862Z,101902.80
2022-10-18T10:39:25.212Z,101904.60
2022-10-18T10:41:57.496Z,101915.00
2022-10-18T10:44:36.360Z,101912.00
2022-10-18T10:47:05.141Z,101903.00
2022-10-18T10:49:41.280Z,101899.00
2022-10-18T10:52:27.443Z,101893.20
2022-10-18T10:55:11.024Z,101883.20
2022-10-18T10:57:51.356Z,101879.40
2022-10-18T11:00:40.959Z,101883.60
2022-10-18T11:03:34.733Z,101889.60
2022-10-18T11:06:03.329Z,101888.80
2022-10-18T11:08:43.540Z,101893.40
2022-10-18T11:11:28.070Z,101896.80
2022-10-18T11:14:36.772Z,101896.40
2022-10-18T11:17:34.640Z,101894.00
2022-10-18T11:20:22.683Z,101903.40
2022-10-18T11:22:56.794Z,101899.60
2022-10-18T11:25:44.837Z,101894.40
2022-10-18T11:29:19.674Z,101886.40
2022-10-18T11:32:18.164Z,101882.00
2022-10-18T11:34:58.827Z,101878.60
2022-10-18T11:37:42.683Z,101874.20
2022-10-18T11:40:48.631Z,101884.00
2022-10-18T11:44:00.398Z,101886.60
2022-10-18T11:46:54.206Z,101888.40
2022-10-18T11:49:25.860Z,101882.00
2022-10-18T11:52:22.811Z,101882.80
2022-10-18T11:55:09.519Z,101878.20
2022-10-18T11:58:19.065Z,101873.40
2022-10-18T12:00:55.746Z,101868.80
2022-10-18T12:03:39.171Z,101867.80
2022-10-18T12:06:17.647Z,101868.60
2022-10-18T12:08:57.843Z,101864.00
2022-10-18T12:11:47.183Z,101861.40
2022-10-18T12:15:01.474Z,101858.60
2022-10-18T12:17:47.458Z,101853.60
2022-10-18T12:20:30.179Z,101852.60
2022-10-18T12:23:11.872Z,101844.00
2022-10-18T12:25:49.160Z,101842.00
2022-10-18T12:28:36.123Z,101838.00
2022-10-18T12:31:37.221Z,101824.80
2022-10-18T12:34:24.033Z,101812.40
2022-10-18T12:37:10.856Z,101806.60
2022-10-18T12:42:46.880Z,101804.80
2022-10-18T12:45:33.593Z,101805.80
2022-10-18T12:48:07.140Z,101804.80
2022-10-18T12:50:39.526Z,101795.60
2022-10-18T12:53:10.857Z,101796.40
2022-10-18T12:55:46.991Z,101802.40
2022-10-18T12:58:15.733Z,101812.60
2022-10-18T13:00:44.087Z,101813.40
2022-10-18T13:03:21.068Z,101816.80
2022-10-18T13:05:54.842Z,101820.00
2022-10-18T13:08:30.482Z,101820.40
2022-10-18T13:11:01.773Z,101812.40
2022-10-18T13:14:05.790Z,101816.20
2022-10-18T13:16:46.454Z,101816.80
2022-10-18T13:20:02.895Z,101818.60
2022-10-18T13:23:03.448Z,101820.40
2022-10-18T13:26:13.659Z,101816.20
2022-10-18T13:29:05.237Z,101812.00
2022-10-18T13:31:45.642Z,101815.80
2022-10-18T13:34:46.586Z,101822.80
2022-10-18T13:37:15.788Z,101827.20
2022-10-18T13:39:44.471Z,101824.00
2022-10-18T13:42:15.921Z,101821.00
2022-10-18T13:44:45.018Z,101822.80
2022-10-18T13:47:32.341Z,101821.80
2022-10-18T13:50:42.458Z,101820.00
2022-10-18T13:53:29.005Z,101818.80
2022-10-18T13:57:12.350Z,101822.20
2022-10-18T14:00:15.860Z,101821.80
2022-10-18T14:03:31.656Z,101823.00
2022-10-18T14:06:23.059Z,101828.60
2022-10-18T14:09:25.663Z,101828.60
2022-10-18T14:12:27.714Z,101836.80
2022-10-18T14:15:35.469Z,101837.00
2022-10-18T14:18:16.489Z,101834.80
2022-10-18T14:21:12.292Z,101836.40
2022-10-18T14:23:44.855Z,101830.80
2022-10-18T14:26:19.933Z,101830.20
2022-10-18T14:29:19.578Z,101844.00
2022-10-18T14:31:55.840Z,101842.40
2022-10-18T14:34:26.029Z,101839.60
2022-10-18T14:36:55.047Z,101840.60
2022-10-18T14:39:30.526Z,101833.00
2022-10-18T14:42:00.549Z,101843.40
2022-10-18T14:44:32.260Z,101845.60
2022-10-18T14:47:24.791Z,101837.80
2022-10-18T14:49:54.857Z,101835.60
2022-10-18T14:52:35.509Z,101838.00
2022-10-18T14:55:05.904Z,101840.00
2022-10-18T14:57:37.838Z,101838.80
2022-10-18T15:00:15.901Z,101836.20
2022-10-18T15:02:46.129Z,101842.20
2022-10-18T15:05:25.590Z,101836.00
2022-10-18T15:07:55.406Z,101832.00
2022-10-18T15:10:31.832Z,101829.00
2022-10-18T15:13:10.106Z,101829.80
2022-10-18T15:15:41.483Z,101825.40
2022-10-18T15:18:27.068Z,101834.20
2022-10-18T15:21:23.116Z,101832.60
2022-10-18T15:23:52.511Z,101828.80
2022-10-18T15:26:31.318Z,101833.60
2022-10-18T15:29:02.861Z,101836.20
2022-10-18T15:31:43.232Z,101838.20
2022-10-18T15:34:24.599Z,101841.20
2022-10-18T15:36:57.616Z,101844.60
2022-10-18T15:39:32.432Z,101840.60
2022-10-18T15:42:03.184Z,101838.80
2022-10-18T15:44:51.826Z,101840.40
2022-10-18T15:47:22.071Z,101844.80
2022-10-18T15:49:51.465Z,101844.80
2022-10-18T15:52:43.075Z,101849.20
2022-10-18T15:55:29.987Z,101845.40
2022-10-18T15:58:26.015Z,101842.60
2022-10-18T16:00:59.994Z,101844.20
2022-10-18T16:03:29.123Z,101842.60
2022-10-18T16:06:06.161Z,101850.00
2022-10-18T16:08:43.606Z,101846.80
2022-10-18T16:11:18.942Z,101851.20
2022-10-18T16:13:48.349Z,101848.20
2022-10-18T16:16:26.390Z,101856.40
2022-10-18T16:18:55.811Z,101863.00
2022-10-18T16:21:35.405Z,101865.20
2022-10-18T16:24:05.930Z,101871.80
2022-10-18T16:26:35.346Z,101878.60
2022-10-18T16:29:06.014Z,101883.00
2022-10-18T16:31:35.396Z,101884.20
2022-10-18T16:34:04.462Z,101883.40
2022-10-18T16:36:34.481Z,101888.60
2022-10-18T16:39:10.746Z,101892.00
2022-10-18T16:41:39.126Z,101888.80
2022-10-18T16:44:07.608Z,101891.00
2022-10-18T16:46:36.912Z,101896.80
2022-10-18T16:49:06.514Z,101896.80
2022-10-18T16:51:34.999Z,101898.20
2022-10-18T16:54:03.583Z,101896.40
2022-10-18T16:56:33.682Z,101893.80
2022-10-18T16:59:02.336Z,101895.80
2022-10-18T17:01:31.048Z,101899.60
2022-10-18T17:03:59.562Z,101903.40
2022-10-18T17:06:32.530Z,101902.80
2022-10-18T17:09:01.132Z,101902.60
2022-10-18T17:11:29.921Z,101898.00
2022-10-18T17:13:58.407Z,101894.40
2022-10-18T17:16:33.975Z,101898.00
2022-10-18T17:19:07.151Z,101907.80
2022-10-18T17:21:35.894Z,101908.60
2022-10-18T17:24:06.403Z,101912.20
2022-10-18T17:26:35.076Z,101910.40
2022-10-18T17:29:07.144Z,101912.60
2022-10-18T17:31:35.986Z,101912.60
2022-10-18T17:34:05.308Z,101921.20
2022-10-18T17:36:34.566Z,101922.60
2022-10-18T17:39:03.964Z,101918.00
2022-10-18T17:41:32.707Z,101920.40
2022-10-18T17:44:06.814Z,101930.20
2022-10-18T17:46:35.292Z,101929.00
2022-10-18T17:49:03.877Z,101932.20
2022-10-18T17:51:32.981Z,101929.60
2022-10-18T17:54:01.763Z,101940.60
2022-10-18T17:56:33.839Z,101936.20
2022-10-18T17:59:03.028Z,101936.80
2022-10-18T18:01:31.686Z,101935.20
2022-10-18T18:04:02.328Z,101934.40
2022-10-18T18:06:35.690Z,101935.20
2022-10-18T18:09:14.481Z,101929.40
2022-10-18T18:11:46.021Z,101927.80
2022-10-18T18:14:16.227Z,101924.40
2022-10-18T18:16:47.392Z,101911.40
2022-10-18T18:19:19.285Z,101916.00
2022-10-18T18:21:48.448Z,101916.60
2022-10-18T18:24:18.058Z,101917.20
2022-10-18T18:26:46.540Z,101923.80
2022-10-18T18:29:15.376Z,101923.00
2022-10-18T18:31:44.337Z,101917.60
2022-10-18T18:34:13.515Z,101924.20
2022-10-18T18:36:43.334Z,101928.80
2022-10-18T18:39:26.158Z,101923.20
2022-10-18T18:41:54.634Z,101921.80
2022-10-18T18:44:24.830Z,101920.00
2022-10-18T18:46:53.442Z,101924.60
2022-10-18T18:49:22.334Z,101928.80
2022-10-18T18:51:50.918Z,101928.00
2022-10-18T18:54:20.530Z,101917.80
2022-10-18T18:56:49.456Z,101913.80
2022-10-18T18:59:20.660Z,101926.00
2022-10-18T19:01:50.343Z,101924.80
2022-10-18T19:04:19.574Z,101929.40
2022-10-18T19:06:48.260Z,101939.00
2022-10-18T19:09:19.927Z,101936.80
2022-10-18T19:11:54.041Z,101932.80
2022-10-18T19:14:25.662Z,101939.60
2022-10-18T19:17:01.855Z,101941.00
2022-10-18T19:19:31.775Z,101935.80
2022-10-18T19:22:08.661Z,101934.40
2022-10-18T19:24:37.621Z,101941.80
2022-10-18T19:27:12.144Z,101941.80
2022-10-18T19:29:41.755Z,101947.00
2022-10-18T19:32:12.427Z,101944.20
2022-10-18T19:34:41.727Z,101943.60
2022-10-18T19:37:15.473Z,101943.60
2022-10-18T19:39:43.993Z,101945.20
2022-10-18T19:42:18.635Z,101951.60
2022-10-18T19:44:51.618Z,101949.40
2022-10-18T19:47:20.805Z,101953.40
2022-10-18T19:49:49.412Z,101951.40
2022-10-18T19:52:17.988Z,101956.20
2022-10-18T19:54:49.624Z,101956.60
2022-10-18T19:57:18.010Z,101956.80
2022-10-18T19:59:46.493Z,101955.40
2022-10-18T20:02:15.414Z,101959.60
2022-10-18T20:04:43.866Z,101964.60
2022-10-18T20:07:12.371Z,101959.80
2022-10-18T20:09:40.834Z,101970.40
2022-10-18T20:12:09.316Z,101971.00
2022-10-18T20:14:38.328Z,101971.00
2022-10-18T20:17:06.892Z,101972.00
2022-10-18T20:19:35.476Z,101974.20
2022-10-18T20:22:03.961Z,101981.80
2022-10-18T20:24:33.157Z,101989.00
2022-10-18T20:27:02.663Z,101984.20
2022-10-18T20:29:33.806Z,101979.00
2022-10-18T20:32:02.769Z,101989.80
2022-10-18T20:34:31.800Z,101989.40
2022-10-18T20:37:01.376Z,101991.00
2022-10-18T20:39:30.092Z,101988.20
2022-10-18T20:41:58.473Z,101995.00
2022-10-18T20:44:27.388Z,101991.20
2022-10-18T20:46:56.054Z,101994.20
2022-10-18T20:49:25.354Z,101996.80
2022-10-18T20:51:54.996Z,101995.00
2022-10-18T20:54:24.157Z,101995.80
2022-10-18T20:56:53.459Z,101998.20
2022-10-18T20:59:21.843Z,102000.40
2022-10-18T21:01:50.322Z,102000.80
2022-10-18T21:04:19.213Z,101998.60
2022-10-18T21:06:47.692Z,101993.60
2022-10-18T21:09:20.784Z,101998.00
2022-10-18T21:11:53.950Z,101998.60
2022-10-18T21:14:24.853Z,101999.60
2022-10-18T21:16:53.601Z,101996.00
2022-10-18T21:19:26.972Z,101996.40
2022-10-18T21:21:57.774Z,101992.20
2022-10-18T21:24:26.861Z,101990.40
2022-10-18T21:26:56.269Z,101997.60
2022-10-18T21:29:25.275Z,101990.80
2022-10-18T21:31:59.546Z,101988.80
2022-10-18T21:34:28.130Z,101988.00
2022-10-18T21:36:56.817Z,101988.20
2022-10-18T21:39:25.525Z,101985.80
2022-10-18T21:41:54.497Z,101982.40
2022-10-18T21:44:23.184Z,101976.20
2022-10-18T21:46:51.974Z,101973.60
2022-10-18T21:49:20.661Z,101972.80
2022-10-18T21:51:49.680Z,101970.00
2022-10-18T21:54:18.489Z,101967.40
2022-10-18T21:56:47.746Z,101974.80
2022-10-18T21:59:16.334Z,101962.20
2022-10-18T22:01:46.245Z,101969.20
2022-10-18T22:04:24.832Z,101960.20
2022-10-18T22:06:53.772Z,101965.00
2022-10-18T22:09:23.262Z,101972.40
2022-10-18T22:11:54.628Z,101970.20
2022-10-18T22:14:23.828Z,101975.40
2022-10-18T22:16:53.034Z,101979.20
2022-10-18T22:19:22.209Z,101973.60
2022-10-18T22:21:51.408Z,101967.40
2022-10-18T22:24:20.505Z,101968.40
2022-10-18T22:26:49.318Z,101963.80
2022-10-18T22:29:21.674Z,101963.20
2022-10-18T22:31:53.976Z,101968.00
2022-10-18T22:34:27.858Z,101966.20
2022-10-18T22:36:57.455Z,101970.40
2022-10-18T22:39:26.039Z,101967.60
2022-10-18T22:41:56.933Z,101958.20
2022-10-18T22:44:25.870Z,101956.40
2022-10-18T22:46:54.941Z,101953.20
2022-10-18T22:49:23.449Z,101957.80
2022-10-18T22:51:52.955Z,101951.80
2022-10-18T22:54:21.541Z,101959.40
2022-10-18T22:56:50.532Z,101956.20
2022-10-18T22:59:19.117Z,101952.40
2022-10-18T23:01:47.701Z,101958.20
2022-10-18T23:04:16.187Z,101961.80
2022-10-18T23:06:44.768Z,101960.40
2022-10-18T23:09:13.148Z,101961.60
2022-10-18T23:11:41.629Z,101961.40
2022-10-18T23:14:10.830Z,101961.80
2022-10-18T23:16:39.219Z,101957.60
2022-10-18T23:19:07.692Z,101956.00
2022-10-18T23:21:36.071Z,101956.80
2022-10-18T23:24:04.879Z,101957.60
2022-10-18T23:26:33.648Z,101962.40
2022-10-18T23:29:02.210Z,101964.40
2022-10-18T23:31:33.625Z,101961.00
2022-10-18T23:34:05.330Z,101959.40
2022-10-18T23:36:34.709Z,101959.40
2022-10-18T23:39:04.665Z,101954.80
2022-10-18T23:41:33.551Z,101960.20
2022-10-18T23:44:02.750Z,101960.00
2022-10-18T23:46:31.235Z,101960.20
2022-10-18T23:48:59.613Z,101959.20
2022-10-18T23:51:28.300Z,101959.80
2022-10-18T23:53:56.677Z,101958.40
2022-10-18T23:56:25.162Z,101960.00
2022-10-18T23:58:53.542Z,101951.60
